Terminal Aerodrome Forecast
Issued by NWS

Current Version | Previous Version | Text Only | Print | Product List | Glossary On
Versions: 1 2 3 4 5 6 7 8 9 10 11 12 13 14 15 16 17 18 19 20 21 22 23 24 25 26 27 28 29 30
406
FTAK31 PANC 241120
TAFAVD
TAF
PAVD 241120Z 2412/2512 VRB02KT 5SM -SHSN SCT020 OVC060
      TEMPO 2412/2416 2SM -SN SCT010 BKN018
     FM241600 VRB03KT 2SM -SN BKN005 OVC012
     FM242100 VRB03KT 5SM -SNRA SCT012 OVC020
      AMD LTD TO CLD VIS AND WIND=

USA.gov is the U.S. government's official web portal to all federal, state and local government web resources and services.